createdAt,value
2022-08-29T00:03:59.663Z,25.3
2022-08-29T00:09:41.940Z,25.3
2022-08-29T00:15:29.838Z,25.3
2022-08-29T00:21:07.560Z,25.3
2022-08-29T00:26:33.878Z,25.3
2022-08-29T00:31:59.310Z,25.3
2022-08-29T00:37:40.521Z,25.3
2022-08-29T00:43:06.701Z,25.3
2022-08-29T00:48:28.794Z,25.3
2022-08-29T00:53:49.447Z,25.3
2022-08-29T00:58:54.291Z,25.3
2022-08-29T01:04:40.718Z,25.3
2022-08-29T01:10:30.273Z,25.3
2022-08-29T01:16:08.645Z,25.3
2022-08-29T01:21:30.534Z,25.3
2022-08-29T01:26:51.829Z,25.3
2022-08-29T01:33:03.111Z,25.3
2022-08-29T01:38:40.822Z,25.3
2022-08-29T01:44:21.426Z,25.3
2022-08-29T01:50:01.533Z,25.3
2022-08-29T01:55:37.701Z,25.3
2022-08-29T02:01:20.282Z,25.2
2022-08-29T02:06:43.271Z,25.3
2022-08-29T02:12:20.255Z,25.2
2022-08-29T02:17:41.310Z,25.3
2022-08-29T02:23:30.426Z,25.3
2022-08-29T02:29:23.443Z,25.2
2022-08-29T02:34:36.698Z,25.2
2022-08-29T02:40:04.653Z,25.3
2022-08-29T02:45:41.018Z,25.2
2022-08-29T02:51:33.612Z,25.2
2022-08-29T02:57:01.064Z,25.1
2022-08-29T03:02:23.163Z,25.2
2022-08-29T03:07:47.970Z,25.2
2022-08-29T03:13:11.968Z,25.2
2022-08-29T03:18:51.150Z,25.1
2022-08-29T03:24:27.449Z,25.1
2022-08-29T03:30:13.483Z,25.1
2022-08-29T03:35:23.523Z,25.1
2022-08-29T03:40:46.325Z,25.1
2022-08-29T03:46:25.478Z,25.1
2022-08-29T03:52:03.663Z,25.1
2022-08-29T03:57:41.809Z,25.1
2022-08-29T04:03:19.310Z,25.1
2022-08-29T04:09:00.427Z,25.1
2022-08-29T04:14:36.125Z,25.1
2022-08-29T04:20:25.185Z,25.1
2022-08-29T04:26:27.050Z,25.1
2022-08-29T04:32:14.131Z,25.1
2022-08-29T04:37:55.267Z,25.1
2022-08-29T04:43:33.024Z,25.1
2022-08-29T04:49:15.725Z,25.1
2022-08-29T04:54:55.006Z,25.1
2022-08-29T05:00:26.973Z,25.1
2022-08-29T05:05:54.712Z,25.1
2022-08-29T05:11:40.958Z,25.1
2022-08-29T05:17:18.590Z,25.1
2022-08-29T05:23:05.744Z,25.1
2022-08-29T05:28:43.636Z,25.1
2022-08-29T05:34:51.531Z,25.1
2022-08-29T05:40:15.734Z,25.1
2022-08-29T05:45:57.805Z,25.1
2022-08-29T05:51:41.984Z,25.2
2022-08-29T05:57:20.099Z,25.2
2022-08-29T06:03:00.080Z,25.2
2022-08-29T06:08:40.588Z,25.2
2022-08-29T06:14:21.353Z,25.2
2022-08-29T06:20:06.363Z,25.2
2022-08-29T06:26:10.973Z,25.2
2022-08-29T06:32:00.716Z,25.2
2022-08-29T06:37:38.641Z,25.2
2022-08-29T06:43:18.271Z,25.2
2022-08-29T06:49:01.934Z,25.2
2022-08-29T06:55:09.958Z,25.3
2022-08-29T07:01:11.676Z,25.3
2022-08-29T07:06:52.772Z,25.3
2022-08-29T07:12:56.397Z,25.3
2022-08-29T07:18:49.520Z,25.3
2022-08-29T07:24:31.518Z,25.3
2022-08-29T07:30:13.732Z,25.3
2022-08-29T07:36:19.294Z,25.3
2022-08-29T07:42:03.729Z,25.4
2022-08-29T07:47:49.698Z,25.3
2022-08-29T07:53:41.554Z,25.4
2022-08-29T07:59:23.760Z,25.4
2022-08-29T08:04:52.453Z,25.4
2022-08-29T08:10:47.860Z,25.4
2022-08-29T08:16:33.862Z,25.4
2022-08-29T08:22:22.281Z,25.4
2022-08-29T08:28:01.390Z,25.4
2022-08-29T08:33:44.095Z,25.5
2022-08-29T08:39:21.688Z,25.5
2022-08-29T08:45:07.944Z,25.5
2022-08-29T08:50:30.339Z,25.5
2022-08-29T08:56:11.531Z,25.5
2022-08-29T09:01:33.606Z,25.6
2022-08-29T09:07:13.423Z,25.5
2022-08-29T09:12:39.214Z,25.6
2022-08-29T09:18:30.257Z,25.5
2022-08-29T09:24:46.935Z,25.6
2022-08-29T09:30:29.415Z,25.6
2022-08-29T09:36:37.108Z,25.6
2022-08-29T09:42:20.120Z,25.6
2022-08-29T09:48:00.141Z,25.6
2022-08-29T09:53:47.617Z,25.6
2022-08-29T09:59:29.400Z,25.6
2022-08-29T10:05:19.415Z,25.6
2022-08-29T10:11:04.505Z,25.6
2022-08-29T10:16:56.232Z,25.6
2022-08-29T10:22:41.972Z,25.6
2022-08-29T10:28:18.996Z,25.6
2022-08-29T10:33:46.388Z,25.6
2022-08-29T10:39:14.858Z,25.6
2022-08-29T10:45:05.297Z,25.6
2022-08-29T10:51:02.237Z,25.6
2022-08-29T10:56:40.196Z,25.6
2022-08-29T11:02:23.155Z,25.6
2022-08-29T11:08:02.565Z,25.7
2022-08-29T11:13:40.936Z,25.7
2022-08-29T11:19:25.427Z,25.7
2022-08-29T11:25:07.716Z,25.6
2022-08-29T11:30:51.782Z,25.7
2022-08-29T11:36:28.448Z,25.8
2022-08-29T11:43:29.114Z,25.8
2022-08-29T11:49:20.467Z,25.8
2022-08-29T11:54:59.664Z,25.7
2022-08-29T12:00:44.106Z,25.8
2022-08-29T12:06:40.203Z,25.8
2022-08-29T12:12:49.076Z,25.8
2022-08-29T12:18:40.855Z,25.8
2022-08-29T12:24:24.989Z,25.8
2022-08-29T12:30:51.433Z,25.8
2022-08-29T12:37:09.019Z,25.8
2022-08-29T12:42:56.032Z,25.8
2022-08-29T12:48:06.573Z,25.8
2022-08-29T12:53:41.327Z,25.8
2022-08-29T12:59:07.369Z,25.8
2022-08-29T13:04:55.315Z,25.9
2022-08-29T13:10:40.963Z,25.9
2022-08-29T13:16:22.880Z,25.9
2022-08-29T13:22:31.685Z,25.9
2022-08-29T13:28:19.433Z,25.9
2022-08-29T13:33:52.323Z,25.9
2022-08-29T13:39:37.079Z,25.9
2022-08-29T13:45:19.296Z,25.9
2022-08-29T13:50:58.373Z,25.9
2022-08-29T13:56:40.422Z,25.9
2022-08-29T14:03:18.679Z,25.9
2022-08-29T14:09:20.652Z,25.9
2022-08-29T14:15:08.254Z,25.9
2022-08-29T14:20:54.533Z,25.9
2022-08-29T14:26:18.729Z,25.9
2022-08-29T14:32:19.619Z,25.9
2022-08-29T14:38:19.781Z,25.9
2022-08-29T14:44:02.733Z,25.9
2022-08-29T14:49:42.290Z,25.8
2022-08-29T14:55:34.918Z,25.9
2022-08-29T15:01:44.168Z,25.8
2022-08-29T15:07:13.802Z,25.8
2022-08-29T15:12:58.059Z,25.8
2022-08-29T15:25:52.295Z,25.8
2022-08-29T15:31:35.176Z,25.7
2022-08-29T15:37:15.033Z,25.7
2022-08-29T15:43:06.660Z,25.6
2022-08-29T15:48:53.421Z,25.7
2022-08-29T15:54:31.360Z,25.6
2022-08-29T16:00:48.968Z,25.6
2022-08-29T16:06:27.684Z,25.6
2022-08-29T16:12:25.424Z,25.6
